Time;durP1;ratioP1;P1;durP2;ratioP2;P2;SDS_P1;SDS_P2;PMS_P1;PMS_P2;Temp;Humidity;BMP_temperature;BMP_pressure;BME280_temperature;BME280_humidity;BME280_pressure;Samples;Min_cycle;Max_cycle;Signal;HPM_P1;HPM_P2
2022/07/25 00:00:06;;;;;;;9.95;9.18;;;;;;;19.23;99.49;99998.73;1696463;83;21056;-71
2022/07/25 00:02:33;;;;;;;10.10;9.23;;;;;;;19.19;99.28;99997.09;1696858;84;21463;-70
2022/07/25 00:04:59;;;;;;;9.80;9.00;;;;;;;19.22;99.50;99995.22;1689269;83;21074;-71
2022/07/25 00:07:26;;;;;;;7.87;7.17;;;;;;;19.23;99.61;99984.70;1697552;83;21039;-71
2022/07/25 00:09:53;;;;;;;8.83;8.03;;;;;;;19.28;99.15;100002.84;1693293;83;21506;-71
2022/07/25 00:12:22;;;;;;;7.40;6.72;;;;;;;19.31;98.76;100005.56;1691207;83;21074;-70
2022/07/25 00:14:50;;;;;;;8.40;7.45;;;;;;;19.34;97.86;99995.06;1694839;83;21035;-71
2022/07/25 00:17:16;;;;;;;7.28;6.75;;;;;;;19.33;96.96;99992.64;1696736;84;21054;-70
2022/07/25 00:19:43;;;;;;;7.97;6.90;;;;;;;19.27;96.70;99991.77;1695993;83;21023;-71
2022/07/25 00:22:09;;;;;;;;;;;;;;;19.19;97.06;99999.80;1699160;83;21071;-71
2022/07/25 00:24:35;;;;;;;7.35;6.53;;;;;;;19.13;96.87;99999.44;1697223;83;20194;-70
2022/07/25 00:27:01;;;;;;;;;;;;;;;19.01;97.66;99999.58;1686158;84;21011;-69
2022/07/25 00:29:28;;;;;;;6.50;5.97;;;;;;;18.97;97.60;100001.70;1695410;83;20167;-70
2022/07/25 00:31:53;;;;;;;;;;;;;;;18.89;98.25;100006.98;1699377;83;22550;-69
2022/07/25 00:34:20;;;;;;;7.25;6.12;;;;;;;18.81;98.34;100005.54;1696302;84;20458;-69
2022/07/25 00:36:46;;;;;;;6.75;6.10;;;;;;;18.78;99.19;100005.19;1696433;84;21122;-72
2022/07/25 00:39:14;;;;;;;7.35;6.40;;;;;;;18.78;98.53;99999.28;1695402;83;21094;-71
2022/07/25 00:41:40;;;;;;;6.60;5.90;;;;;;;18.76;98.64;100001.42;1696651;84;21047;-70
2022/07/25 00:44:06;;;;;;;6.60;6.10;;;;;;;18.74;98.50;100003.55;1691542;84;21111;-71
2022/07/25 00:46:32;;;;;;;;;;;;;;;18.71;98.57;100002.69;1698599;84;21007;-70
2022/07/25 00:48:58;;;;;;;7.10;6.03;;;;;;;18.68;98.61;100001.32;1696920;84;20151;-70
2022/07/25 00:51:24;;;;;;;;;;;;;;;18.60;98.50;100004.97;1699168;83;21096;-70
2022/07/25 00:55:16;;;;;;;6.72;6.12;;;;;;;18.54;99.13;100005.44;1789619;78;22933;-70
2022/07/25 00:57:43;;;;;;;7.03;6.42;;;;;;;18.44;99.10;99997.19;1712815;81;21120;-67
2022/07/25 01:00:14;;;;;;;9.88;6.53;;;;;;;18.49;99.31;100000.77;1718837;81;21163;-69
2022/07/25 01:02:42;;;;;;;6.17;5.80;;;;;;;18.49;99.47;99996.72;1709601;81;21148;-71
2022/07/25 01:05:10;;;;;;;6.17;5.78;;;;;;;18.48;99.41;99992.41;1729881;81;21646;-69
2022/07/25 01:07:38;;;;;;;7.40;6.80;;;;;;;18.45;99.34;99990.73;1715444;82;20996;-71
2022/07/25 01:10:08;;;;;;;8.80;8.00;;;;;;;18.43;99.45;99997.73;1712137;81;21014;-71
2022/07/25 01:12:53;;;;;;;7.37;6.78;;;;;;;18.43;99.51;99999.08;1737694;81;21683;-70
2022/07/25 01:15:22;;;;;;;5.80;5.37;;;;;;;18.47;99.98;99997.51;1726789;81;21478;-71
2022/07/25 01:17:50;;;;;;;7.45;6.87;;;;;;;18.53;99.77;99996.23;1725413;81;21010;-70
2022/07/25 01:20:23;;;;;;;6.97;6.22;;;;;;;18.53;98.57;99994.89;1734212;81;21391;-71
2022/07/25 01:22:50;;;;;;;7.25;5.70;;;;;;;18.49;98.24;99997.27;1715258;81;21111;-72
2022/07/25 01:25:16;;;;;;;6.92;6.33;;;;;;;18.43;97.96;99999.62;1689510;83;21129;-71
2022/07/25 01:27:44;;;;;;;5.55;5.15;;;;;;;18.39;98.81;99996.59;1699408;82;21031;-71
2022/07/25 01:30:14;;;;;;;6.40;5.80;;;;;;;18.38;98.54;99988.74;1702823;82;21089;-71
2022/07/25 01:32:43;;;;;;;5.92;5.33;;;;;;;18.37;98.16;99989.28;1690942;83;21621;-71
2022/07/25 01:35:11;;;;;;;6.33;5.75;;;;;;;18.32;98.09;99995.14;1698452;82;21415;-70
2022/07/25 01:37:38;;;;;;;7.00;6.47;;;;;;;18.27;98.58;99991.82;1705354;83;21065;-72
2022/07/25 01:40:06;;;;;;;5.70;5.30;;;;;;;18.27;98.43;99994.52;1699451;83;21128;-71
2022/07/25 01:42:34;;;;;;;9.93;9.23;;;;;;;18.24;98.34;99995.03;1697798;83;21017;-69
2022/07/25 01:45:00;;;;;;;7.00;6.33;;;;;;;18.18;98.63;99992.79;1698252;83;21583;-69
2022/07/25 01:47:30;;;;;;;8.55;6.12;;;;;;;18.19;99.01;99990.36;1649586;84;21028;-69
2022/07/25 01:49:56;;;;;;;8.50;6.05;;;;;;;18.19;98.69;100001.15;1637270;86;21155;-70
2022/07/25 01:52:23;;;;;;;5.65;5.28;;;;;;;18.20;98.69;100000.64;1631477;85;21118;-71
2022/07/25 01:54:49;;;;;;;;;;;;;;;18.21;98.42;100006.30;1657008;85;21200;-69
2022/07/25 01:57:15;;;;;;;6.95;6.15;;;;;;;18.20;98.67;100001.98;1659861;84;20138;-70
2022/07/25 01:59:42;;;;;;;6.95;6.45;;;;;;;18.15;98.70;100005.95;1641553;86;21086;-70
2022/07/25 02:02:10;;;;;;;6.47;5.90;;;;;;;18.16;98.96;100004.36;1641297;84;21615;-70
2022/07/25 02:04:37;;;;;;;6.50;5.87;;;;;;;18.19;98.55;99994.95;1643066;86;21531;-69
2022/07/25 02:07:03;;;;;;;8.25;7.45;;;;;;;18.20;98.33;100006.03;1654298;86;21024;-72
2022/07/25 02:09:30;;;;;;;6.95;6.28;;;;;;;18.18;98.15;100000.07;1612501;88;21098;-70
2022/07/25 02:11:56;;;;;;;8.73;6.15;;;;;;;18.18;98.01;100004.13;1650501;85;21063;-70
2022/07/25 02:14:26;;;;;;;5.92;5.42;;;;;;;18.16;97.60;100003.52;1655520;85;21135;-71
2022/07/25 02:16:54;;;;;;;7.12;6.08;;;;;;;18.13;97.93;100007.54;1652838;85;21082;-72
2022/07/25 02:19:21;;;;;;;6.33;5.92;;;;;;;18.13;98.18;100009.42;1652973;85;21067;-69
2022/07/25 02:21:47;;;;;;;6.50;6.10;;;;;;;18.14;97.93;100004.30;1652999;85;21055;-68
2022/07/25 02:24:16;;;;;;;6.95;6.33;;;;;;;18.13;97.86;100006.73;1604382;86;21026;-68
2022/07/25 02:26:42;;;;;;;7.65;6.60;;;;;;;18.17;98.27;100006.52;1603677;88;21151;-70
2022/07/25 02:29:08;;;;;;;9.25;6.08;;;;;;;18.18;97.58;100007.63;1630600;87;21182;-70
2022/07/25 02:31:36;;;;;;;6.92;6.30;;;;;;;18.17;96.77;100005.98;1656831;85;21096;-70
2022/07/25 02:34:03;;;;;;;8.15;5.85;;;;;;;18.17;96.54;100007.86;1646311;85;21142;-69
2022/07/25 02:36:29;;;;;;;7.67;6.25;;;;;;;18.16;96.83;100003.02;1631571;86;21081;-71
2022/07/25 02:38:56;;;;;;;6.40;5.83;;;;;;;18.16;96.70;100011.10;1635484;86;21066;-70
2022/07/25 02:41:22;;;;;;;9.40;6.17;;;;;;;18.13;96.43;100002.14;1621859;86;21077;-70
2022/07/25 02:43:48;;;;;;;;;;;;;;;18.14;96.60;100009.19;1630283;86;21080;-69
2022/07/25 02:46:15;;;;;;;6.37;5.87;;;;;;;18.19;96.76;100013.83;1608816;87;20462;-68
2022/07/25 02:48:40;;;;;;;;;;;;;;;18.18;96.53;100016.26;1637378;87;21113;-69
2022/07/25 02:51:07;;;;;;;9.78;5.80;;;;;;;18.18;96.18;100015.72;1621126;86;20480;-69
2022/07/25 02:53:33;;;;;;;6.65;5.87;;;;;;;18.12;96.26;100019.91;1624348;86;21707;-69
2022/07/25 02:55:59;;;;;;;7.15;6.28;;;;;;;18.11;96.31;100018.30;1656509;85;21067;-70
2022/07/25 02:58:25;;;;;;;7.45;6.05;;;;;;;18.12;96.46;100022.11;1660028;85;20998;-69
2022/07/25 03:00:52;;;;;;;7.53;6.92;;;;;;;18.15;96.63;100029.69;1660164;85;21110;-68
2022/07/25 03:03:18;;;;;;;7.08;6.28;;;;;;;18.19;97.11;100034.87;1660445;85;21079;-69
2022/07/25 03:05:45;;;;;;;7.70;7.20;;;;;;;18.20;95.22;100028.42;1677499;84;20984;-68
2022/07/25 03:08:11;;;;;;;9.58;7.45;;;;;;;18.17;95.06;100030.80;1674032;84;21089;-67
2022/07/25 03:10:38;;;;;;;7.65;6.83;;;;;;;18.16;95.06;100037.23;1677638;84;21035;-66
2022/07/25 03:13:04;;;;;;;6.47;5.72;;;;;;;18.15;94.73;100031.58;1667763;84;21036;-67
2022/07/25 03:15:31;;;;;;;;;;;;;;;18.16;95.32;100030.49;1654569;84;21062;-68
2022/07/25 03:17:57;;;;;;;7.55;6.95;;;;;;;18.15;95.31;100033.73;1639725;86;20399;-68
2022/07/25 03:20:24;;;;;;;7.25;6.55;;;;;;;18.08;95.13;100032.56;1640938;86;21548;-68
2022/07/25 03:22:50;;;;;;;6.33;5.87;;;;;;;18.06;94.97;100033.85;1664493;84;21065;-69
2022/07/25 03:25:16;;;;;;;;;;;;;;;18.15;95.33;100034.27;1678957;84;21101;-62
2022/07/25 03:27:42;;;;;;;6.67;6.10;;;;;;;18.15;94.15;100026.18;1673275;84;20118;-61
2022/07/25 03:30:11;;;;;;;11.65;6.15;;;;;;;18.04;94.76;100024.66;1675945;84;21042;-62
2022/07/25 03:32:37;;;;;;;6.22;5.83;;;;;;;18.04;94.80;100024.66;1624205;87;21612;-60
2022/07/25 03:35:06;;;;;;;6.67;6.17;;;;;;;18.04;95.11;100027.89;1663287;84;21027;-60
2022/07/25 03:37:32;;;;;;;7.67;5.62;;;;;;;18.05;95.59;100026.30;1658090;84;21629;-61
2022/07/25 03:39:58;;;;;;;6.85;6.12;;;;;;;18.06;95.21;100025.25;1670831;84;21019;-61
2022/07/25 03:42:24;;;;;;;;;;;;;;;18.03;95.01;100019.53;1666596;84;22364;-61
2022/07/25 03:44:50;;;;;;;7.47;6.87;;;;;;;17.98;95.16;100022.94;1675237;84;20129;-61
2022/07/25 03:47:18;;;;;;;6.45;5.85;;;;;;;17.93;95.64;100018.00;1650095;86;21382;-61
2022/07/25 03:49:45;;;;;;;6.75;6.15;;;;;;;17.95;96.14;100021.27;1652780;86;20964;-60
2022/07/25 03:52:11;;;;;;;11.12;6.25;;;;;;;17.98;95.67;100020.25;1657240;86;21102;-64
2022/07/25 03:54:37;;;;;;;7.15;6.45;;;;;;;18.01;95.74;100025.16;1656167;86;21617;-71
2022/07/25 03:57:04;;;;;;;6.67;6.10;;;;;;;18.01;95.87;100023.81;1672914;84;21050;-75
2022/07/25 03:59:30;;;;;;;5.83;5.42;;;;;;;18.02;95.89;100027.31;1676364;84;21034;-66
2022/07/25 04:01:56;;;;;;;7.22;6.00;;;;;;;18.04;96.21;100031.39;1665067;84;21554;-66
2022/07/25 04:04:23;;;;;;;6.25;5.75;;;;;;;18.07;95.92;100034.96;1674163;84;21097;-65
2022/07/25 04:06:49;;;;;;;9.80;5.80;;;;;;;18.08;95.42;100029.03;1675535;85;21010;-65
2022/07/25 04:09:15;;;;;;;;;;;;;;;18.06;95.83;100045.48;1676975;84;20998;-64
2022/07/25 04:11:42;;;;;;;9.75;6.85;;;;;;;18.07;95.35;100043.05;1674313;84;20145;-66
2022/07/25 04:14:09;;;;;;;6.05;5.45;;;;;;;18.01;95.53;100042.69;1655744;85;21151;-65
2022/07/25 04:16:35;;;;;;;6.65;5.95;;;;;;;18.02;95.96;100040.27;1640618;85;21561;-65
2022/07/25 04:19:04;;;;;;;7.42;6.53;;;;;;;18.03;95.57;100037.87;1657583;85;21048;-66
2022/07/25 04:21:30;;;;;;;7.10;5.22;;;;;;;18.03;95.66;100040.56;1658874;85;21101;-65
2022/07/25 04:23:57;;;;;;;6.65;6.05;;;;;;;18.06;95.58;100037.39;1657429;86;21005;-64
2022/07/25 04:26:22;;;;;;;;;;;;;;;18.09;95.58;100036.87;1659867;86;21025;-64
2022/07/25 04:28:48;;;;;;;7.75;6.80;;;;;;;18.11;94.92;100041.22;1657937;85;20180;-65
2022/07/25 04:31:15;;;;;;;;;;;;;;;18.06;94.93;100048.17;1658691;86;21064;-64
2022/07/25 04:33:42;;;;;;;9.75;6.33;;;;;;;18.06;94.82;100043.29;1639383;86;20213;-65
2022/07/25 04:36:10;;;;;;;7.58;6.17;;;;;;;17.99;94.50;100052.06;1667608;84;20983;-64
2022/07/25 04:38:38;;;;;;;6.50;5.58;;;;;;;17.97;94.82;100046.11;1651349;84;21590;-65
2022/07/25 04:41:05;;;;;;;9.05;6.25;;;;;;;17.98;94.46;100043.70;1660905;85;21141;-67
2022/07/25 04:43:33;;;;;;;6.30;5.50;;;;;;;17.97;94.19;100048.80;1668293;84;21015;-66
2022/07/25 04:46:00;;;;;;;6.95;5.85;;;;;;;17.98;94.09;100047.21;1666489;84;21067;-68
2022/07/25 04:48:26;;;;;;;6.00;5.05;;;;;;;17.97;93.92;100053.69;1669015;84;21104;-65
2022/07/25 04:50:53;;;;;;;6.40;5.67;;;;;;;18.01;93.97;100052.12;1668320;84;21584;-68
2022/07/25 04:53:20;;;;;;;6.47;5.92;;;;;;;18.04;93.74;100055.66;1668703;84;21141;-68
2022/07/25 04:55:46;;;;;;;6.30;5.78;;;;;;;18.05;93.81;100049.22;1657303;84;21955;-68
2022/07/25 04:58:13;;;;;;;8.85;6.08;;;;;;;18.09;94.12;100052.25;1695885;84;21010;-70
2022/07/25 05:00:39;;;;;;;;;;;;;;;18.16;93.85;100054.77;1697925;83;21125;-66
2022/07/25 05:03:06;;;;;;;8.28;6.35;;;;;;;18.22;93.42;100047.88;1694241;83;20113;-67
2022/07/25 05:05:32;;;;;;;10.50;6.75;;;;;;;18.22;93.63;100046.53;1695023;83;21013;-68
2022/07/25 05:07:59;;;;;;;7.22;6.50;;;;;;;18.31;93.40;100047.45;1694111;84;21495;-67
2022/07/25 05:10:28;;;;;;;8.20;6.17;;;;;;;18.42;92.87;100054.13;1695105;84;21025;-67
2022/07/25 05:12:55;;;;;;;7.83;5.85;;;;;;;18.61;92.67;100055.18;1693578;84;21521;-67
2022/07/25 05:15:22;;;;;;;7.72;6.33;;;;;;;18.82;91.16;100050.93;1695826;83;21124;-67
2022/07/25 05:17:50;;;;;;;7.15;5.85;;;;;;;18.98;89.73;100041.13;1696311;83;21466;-69
2022/07/25 05:20:16;;;;;;;6.03;5.62;;;;;;;19.12;89.29;100047.80;1695586;84;21085;-68
2022/07/25 05:22:44;;;;;;;6.12;5.62;;;;;;;19.35;89.07;100050.75;1695490;83;21005;-68
2022/07/25 05:25:11;;;;;;;6.78;5.50;;;;;;;19.56;87.13;100048.27;1695342;84;21059;-65
2022/07/25 05:27:38;;;;;;;5.67;5.22;;;;;;;19.74;86.03;100049.30;1693374;84;21028;-67
2022/07/25 05:30:10;;;;;;;7.83;6.17;;;;;;;19.86;85.81;100046.42;1694081;84;21589;-67
2022/07/25 05:32:37;;;;;;;12.37;6.90;;;;;;;19.93;84.63;100048.90;1691616;83;21061;-68
2022/07/25 05:35:06;;;;;;;7.22;6.05;;;;;;;19.95;84.91;100053.55;1669082;84;21093;-67
2022/07/25 05:37:35;;;;;;;9.13;6.83;;;;;;;19.94;84.44;100050.55;1679706;84;21300;-67
2022/07/25 05:40:02;;;;;;;6.85;6.25;;;;;;;19.93;84.50;100050.25;1663740;86;21631;-68
2022/07/25 05:42:30;;;;;;;16.70;11.55;;;;;;;19.94;84.59;100051.90;1680271;84;21002;-70
2022/07/25 05:44:56;;;;;;;7.42;6.67;;;;;;;19.93;83.49;100045.68;1653203;85;20986;-68
2022/07/25 05:47:24;;;;;;;6.30;5.72;;;;;;;19.86;83.55;100049.67;1682539;85;21085;-67
2022/07/25 05:49:50;;;;;;;8.85;6.22;;;;;;;19.77;84.03;100054.17;1683444;84;21038;-66
2022/07/25 05:52:17;;;;;;;7.85;5.83;;;;;;;19.72;84.43;100054.16;1683701;84;21065;-67
2022/07/25 05:54:44;;;;;;;11.08;8.18;;;;;;;19.65;83.83;100052.95;1683402;84;22252;-69
2022/07/25 05:57:10;;;;;;;11.63;7.70;;;;;;;19.61;84.13;100061.84;1682703;85;21046;-67
2022/07/25 05:59:36;;;;;;;;;;;;;;;19.54;84.04;100054.47;1660589;85;21619;-68
2022/07/25 06:02:03;;;;;;;7.45;6.47;;;;;;;19.50;84.03;100048.75;1683887;84;20226;-66
2022/07/25 06:04:30;;;;;;;7.10;5.37;;;;;;;19.38;84.17;100050.77;1680301;85;21525;-66
2022/07/25 06:06:56;;;;;;;6.83;6.22;;;;;;;19.31;84.95;100044.74;1681912;85;21093;-68
2022/07/25 06:09:24;;;;;;;9.60;7.35;;;;;;;19.26;84.92;100050.37;1682837;84;21573;-68
2022/07/25 06:11:51;;;;;;;7.90;6.35;;;;;;;19.25;84.75;100042.55;1679534;84;21005;-68
2022/07/25 06:14:18;;;;;;;10.10;7.67;;;;;;;19.28;84.87;100045.27;1681134;85;21069;-68
2022/07/25 06:16:44;;;;;;;11.10;7.80;;;;;;;19.36;84.80;100041.56;1683865;84;21097;-68
2022/07/25 06:19:10;;;;;;;;;;;;;;;19.48;84.80;100044.14;1686092;84;21046;-69
2022/07/25 06:21:37;;;;;;;7.73;7.00;;;;;;;19.60;84.04;100047.49;1684021;84;20137;-66
2022/07/25 06:24:05;;;;;;;7.60;6.35;;;;;;;19.60;84.04;100047.49;1683909;84;21419;-69
2022/07/25 06:26:32;;;;;;;8.55;6.70;;;;;;;19.65;83.91;100046.20;1682205;85;21081;-69
2022/07/25 06:28:59;;;;;;;8.28;7.55;;;;;;;19.73;83.68;100042.79;1683467;85;21057;-69
2022/07/25 06:31:26;;;;;;;8.95;6.67;;;;;;;19.69;83.57;100041.64;1683410;84;21061;-67
2022/07/25 06:33:53;;;;;;;8.50;6.70;;;;;;;19.64;83.64;100041.85;1682602;84;21480;-67
2022/07/25 06:36:19;;;;;;;7.22;6.47;;;;;;;19.61;83.58;100038.87;1683344;84;21128;-68
2022/07/25 06:38:45;;;;;;;6.37;5.70;;;;;;;19.56;83.83;100042.33;1681883;85;21101;-68
2022/07/25 06:41:15;;;;;;;6.30;5.70;;;;;;;19.55;84.68;100035.30;1679864;85;21034;-68
2022/07/25 06:43:42;;;;;;;5.42;5.03;;;;;;;19.61;84.25;100041.03;1682765;85;21639;-68
2022/07/25 06:46:09;;;;;;;6.05;5.33;;;;;;;19.69;83.94;100043.00;1682333;84;21085;-68
2022/07/25 06:48:37;;;;;;;7.28;5.80;;;;;;;19.79;83.98;100044.46;1682317;84;21074;-66
2022/07/25 06:51:04;;;;;;;5.85;5.03;;;;;;;19.93;84.10;100045.68;1682983;84;21026;-68
2022/07/25 06:53:31;;;;;;;6.40;5.40;;;;;;;20.06;82.48;100040.89;1679155;85;21030;-67
2022/07/25 06:55:59;;;;;;;6.87;6.28;;;;;;;20.15;81.31;100033.94;1683736;84;20959;-69
2022/07/25 06:58:25;;;;;;;7.17;4.87;;;;;;;20.22;81.52;100039.95;1684916;84;21003;-69
2022/07/25 07:00:50;;;;;;;;;;;;;;;20.37;80.60;100039.24;1687150;84;21022;-71
2022/07/25 07:03:17;;;;;;;5.50;4.40;;;;;;;20.66;79.91;100038.89;1684839;84;20128;-70
2022/07/25 07:05:43;;;;;;;5.67;3.90;;;;;;;20.87;77.31;100042.00;1685318;85;21030;-68
2022/07/25 07:08:10;;;;;;;4.12;3.83;;;;;;;21.18;74.76;100036.70;1688424;84;20983;-70
2022/07/25 07:10:38;;;;;;;3.80;3.45;;;;;;;21.53;72.31;100038.72;1683299;84;21065;-69
2022/07/25 07:13:11;;;;;;;4.47;3.92;;;;;;;21.65;71.67;100032.23;1681303;84;21510;-70
2022/07/25 07:15:42;;;;;;;3.80;3.50;;;;;;;21.87;70.14;100032.80;1689971;84;21023;-71
2022/07/25 07:18:08;;;;;;;3.75;3.45;;;;;;;21.95;69.29;100032.79;1670901;85;21046;-72
2022/07/25 07:20:35;;;;;;;3.20;2.92;;;;;;;22.20;69.20;100036.02;1650004;85;21111;-69
2022/07/25 07:23:02;;;;;;;3.45;3.22;;;;;;;22.55;66.99;100033.03;1680493;84;20990;-69
2022/07/25 07:25:29;;;;;;;3.33;3.02;;;;;;;22.81;66.45;100024.78;1664146;85;21114;-70
2022/07/25 07:27:56;;;;;;;5.62;2.90;;;;;;;22.99;65.27;100033.68;1672071;85;21090;-68
2022/07/25 07:30:22;;;;;;;2.80;2.70;;;;;;;23.01;64.41;100025.25;1668222;84;21038;-69
2022/07/25 07:32:48;;;;;;;3.98;3.67;;;;;;;22.88;65.85;100030.18;1673037;85;21346;-70
2022/07/25 07:35:18;;;;;;;3.08;2.87;;;;;;;22.82;66.24;100025.06;1680672;84;21060;-68
2022/07/25 07:37:45;;;;;;;3.72;2.58;;;;;;;22.79;65.22;100031.04;1631418;86;21019;-69
2022/07/25 07:40:14;;;;;;;3.12;3.02;;;;;;;22.70;65.30;100024.83;1664788;86;21510;-67
2022/07/25 07:42:43;;;;;;;3.87;3.58;;;;;;;22.33;65.87;99978.48;1662970;86;21159;-68
2022/07/25 07:45:20;;;;;;;4.10;3.47;;;;;;;22.63;66.42;100029.73;1664166;85;21601;-69
2022/07/25 07:47:49;;;;;;;2.60;2.42;;;;;;;22.73;65.75;100031.08;1680959;84;21070;-68
2022/07/25 07:50:21;;;;;;;2.30;2.15;;;;;;;22.79;64.72;100025.05;1679216;84;21414;-68
2022/07/25 07:52:50;;;;;;;3.12;2.52;;;;;;;22.82;64.72;100025.06;1660944;85;21018;-67
2022/07/25 07:58:03;;;;;;;3.05;2.62;;;;;;;22.79;63.29;100030.48;1665343;84;21094;-68
2022/07/25 08:00:30;;;;;;;3.90;2.60;;;;;;;22.61;64.05;100019.69;1672306;84;21057;-68
2022/07/25 08:02:58;;;;;;;4.70;3.67;;;;;;;22.65;63.70;100021.31;1668201;84;21160;-68
2022/07/25 08:05:38;;;;;;;2.65;2.55;;;;;;;22.77;63.38;100023.71;1667761;84;21549;-68
2022/07/25 08:08:07;;;;;;;3.35;2.50;;;;;;;22.82;62.95;100022.34;1657325;85;21145;-70
2022/07/25 08:10:38;;;;;;;2.72;2.58;;;;;;;22.82;63.39;100030.49;1632564;86;21121;-67
2022/07/25 08:13:26;;;;;;;3.83;2.17;;;;;;;22.85;62.95;100021.77;1677141;83;21113;-68
2022/07/25 08:15:57;;;;;;;2.60;2.40;;;;;;;22.88;62.99;100024.75;1696145;83;21061;-67
2022/07/25 08:18:28;;;;;;;3.45;1.87;;;;;;;22.96;62.82;100020.64;1695152;83;21124;-68
2022/07/25 08:20:55;;;;;;;3.30;1.80;;;;;;;23.06;62.11;100015.75;1696239;83;21044;-67
2022/07/25 08:23:22;;;;;;;2.27;2.00;;;;;;;23.15;61.52;100020.04;1695660;83;21032;-68
2022/07/25 08:25:50;;;;;;;2.10;2.00;;;;;;;23.21;61.00;100017.59;1689732;83;21057;-68
2022/07/25 08:28:17;;;;;;;3.50;1.65;;;;;;;23.22;61.13;100019.20;1687065;83;21668;-68
2022/07/25 08:30:43;;;;;;;2.83;1.80;;;;;;;23.24;59.95;100025.16;1692087;83;21125;-67
2022/07/25 08:33:14;;;;;;;3.02;2.33;;;;;;;23.23;59.97;100022.19;1662488;84;21565;-69
2022/07/25 08:35:50;;;;;;;3.05;1.62;;;;;;;23.22;60.32;100025.99;1647034;85;21034;-68
2022/07/25 08:38:17;;;;;;;3.90;2.20;;;;;;;23.25;59.48;100025.44;1646918;85;21081;-67
2022/07/25 08:40:45;;;;;;;1.50;1.47;;;;;;;23.30;59.77;100026.23;1647258;85;21022;-69
2022/07/25 08:43:13;;;;;;;4.03;1.60;;;;;;;23.36;58.76;100027.02;1647827;85;21013;-70
2022/07/25 08:45:49;;;;;;;3.12;1.17;;;;;;;23.41;58.81;100015.27;1677704;85;21028;-70
2022/07/25 08:48:19;;;;;;;1.35;1.27;;;;;;;23.46;57.82;100019.33;1669031;84;21064;-70
2022/07/25 08:50:47;;;;;;;3.42;1.70;;;;;;;23.44;57.92;100013.36;1656731;85;21063;-79
2022/07/25 08:53:18;;;;;;;2.67;1.22;;;;;;;23.36;57.61;100021.57;1655650;86;21120;-70
2022/07/25 08:55:45;;;;;;;1.65;1.40;;;;;;;23.34;57.77;100014.24;1652489;85;21582;-72
2022/07/25 08:58:15;;;;;;;1.87;1.67;;;;;;;23.36;58.23;100012.05;1647910;85;21030;-70
2022/07/25 09:00:42;;;;;;;4.90;1.95;;;;;;;23.43;58.64;100021.24;1657307;85;21112;-80
2022/07/25 09:03:09;;;;;;;2.90;1.27;;;;;;;23.47;58.78;100011.42;1657870;85;21035;-71
2022/07/25 09:05:37;;;;;;;2.85;1.50;;;;;;;23.54;58.78;100007.84;1656445;85;21126;-87
2022/07/25 09:08:16;;;;;;;5.35;1.75;;;;;;;23.57;59.44;100016.00;1656964;85;20999;-88
2022/07/25 09:10:49;;;;;;;2.02;1.62;;;;;;;23.59;58.67;100016.53;1653583;85;21090;-85
2022/07/25 09:13:20;;;;;;;2.58;1.17;;;;;;;23.58;57.19;100018.41;1649994;84;20998;-81
2022/07/25 09:15:55;;;;;;;3.75;1.60;;;;;;;23.56;55.92;100017.09;1691214;83;21093;-93
2022/07/25 09:18:26;;;;;;;1.15;1.05;;;;;;;23.54;55.57;100016.00;1693414;83;21555;-84
2022/07/25 09:20:57;;;;;;;3.60;1.22;;;;;;;23.51;55.65;100005.70;1698741;83;21034;-89
2022/07/25 09:23:36;;;;;;;2.37;1.57;;;;;;;23.56;55.67;100013.81;1695410;83;21011;-79
2022/07/25 09:26:13;;;;;;;3.30;1.55;;;;;;;23.66;55.22;100004.78;1685230;84;21475;-78
2022/07/25 09:28:48;;;;;;;4.35;1.30;;;;;;;23.75;55.62;100004.41;1682974;84;21443;-76
2022/07/25 09:31:20;;;;;;;3.67;1.77;;;;;;;23.82;56.34;100014.47;1675188;84;21114;-78
2022/07/25 09:33:55;;;;;;;2.75;1.45;;;;;;;23.88;56.49;100009.27;1684153;83;21054;-80
2022/07/25 09:36:22;;;;;;;4.25;2.12;;;;;;;23.92;57.18;99999.15;1683291;84;21118;-76
2022/07/25 09:38:55;;;;;;;2.15;2.02;;;;;;;23.94;55.76;99996.42;1684077;84;21041;-76
2022/07/25 09:41:39;;;;;;;2.02;1.52;;;;;;;23.97;55.05;100009.44;1683314;84;21101;-76
2022/07/25 09:44:28;;;;;;;1.57;1.25;;;;;;;24.01;53.52;100007.77;1682368;84;21502;-78
2022/07/25 09:46:50;;;;;;;1.87;1.12;;;;;;;23.99;53.40;100007.24;1640325;87;21108;-77
2022/07/25 09:49:18;;;;;;;3.10;1.60;;;;;;;23.90;53.55;100005.70;1670549;84;21035;-78
2022/07/25 09:51:46;;;;;;;2.85;2.60;;;;;;;23.80;54.59;100007.14;1671219;84;21065;-77
2022/07/25 09:54:14;;;;;;;1.32;1.02;;;;;;;23.79;55.12;100006.89;1640738;86;21658;-77
2022/07/25 09:56:40;;;;;;;1.72;1.42;;;;;;;23.77;54.84;100000.89;1660860;85;21147;-76
2022/07/25 09:59:07;;;;;;;1.65;1.55;;;;;;;23.77;55.23;100005.50;1637686;87;21612;-77
2022/07/25 10:01:39;;;;;;;3.25;2.75;;;;;;;23.79;55.86;100003.33;1642543;86;21041;-77
2022/07/25 10:04:24;;;;;;;4.53;1.57;;;;;;;23.87;56.16;100005.46;1642164;86;21379;-76
2022/07/25 10:07:09;;;;;;;1.82;1.67;;;;;;;23.98;56.24;99996.64;1678942;84;21042;-73
2022/07/25 10:09:46;;;;;;;2.72;1.25;;;;;;;24.16;55.58;99999.20;1637492;86;21060;-74
2022/07/25 10:12:21;;;;;;;5.30;0.98;;;;;;;24.28;53.64;99992.84;1666251;84;21211;-75
2022/07/25 10:15:12;;;;;;;2.10;1.27;;;;;;;24.31;53.10;99996.88;1637343;87;21027;-77
2022/07/25 10:17:41;;;;;;;0.88;0.88;;;;;;;24.35;52.08;99994.64;1590983;88;21055;-75
2022/07/25 10:20:09;;;;;;;1.60;1.17;;;;;;;24.27;49.64;99989.84;1638469;87;21481;-75
2022/07/25 10:22:42;;;;;;;0.72;0.72;;;;;;;24.20;50.24;99986.08;1660227;82;22157;-75
2022/07/25 10:25:15;;;;;;;0.65;0.65;;;;;;;24.23;49.78;99989.59;1667592;86;21055;-76
2022/07/25 10:27:47;;;;;;;7.60;1.15;;;;;;;24.27;49.79;99986.55;1671641;84;21030;-75
2022/07/25 10:30:22;;;;;;;2.55;0.80;;;;;;;24.31;50.15;99996.88;1642773;85;21032;-77
2022/07/25 10:33:02;;;;;;;0.75;0.75;;;;;;;24.36;50.37;99994.12;1658908;85;21136;-75
2022/07/25 10:35:29;;;;;;;1.45;1.12;;;;;;;24.39;51.07;100001.16;1642469;87;21596;-75
2022/07/25 10:37:58;;;;;;;1.50;1.40;;;;;;;24.35;49.71;99991.12;1643041;86;21140;-76
2022/07/25 10:40:35;;;;;;;0.90;0.90;;;;;;;24.31;49.59;99988.72;1642998;86;21067;-76
2022/07/25 10:43:21;;;;;;;1.12;0.78;;;;;;;24.31;50.41;99982.70;1642244;87;21059;-78
2022/07/25 10:45:54;;;;;;;1.90;1.07;;;;;;;24.34;50.71;99989.51;1645818;82;21067;-76
2022/07/25 10:48:26;;;;;;;2.27;1.12;;;;;;;24.24;49.85;99984.43;1679911;84;21004;-76
2022/07/25 10:51:00;;;;;;;1.15;0.82;;;;;;;24.19;50.41;99995.36;1674627;84;21036;-76
2022/07/25 10:53:46;;;;;;;1.22;1.07;;;;;;;24.24;50.82;99989.05;1691878;85;21150;-75
2022/07/25 10:56:19;;;;;;;1.82;1.32;;;;;;;24.32;51.23;99991.69;1638013;86;21632;-75
2022/07/25 10:58:55;;;;;;;1.70;1.60;;;;;;;24.40;50.72;99986.42;1662301;84;21050;-75
2022/07/25 11:01:29;;;;;;;1.10;1.00;;;;;;;24.42;50.47;99988.87;1652310;84;21117;-76
2022/07/25 11:04:03;;;;;;;1.25;1.07;;;;;;;24.47;50.76;99984.17;1637173;86;21083;-77
2022/07/25 11:06:38;;;;;;;0.93;0.75;;;;;;;24.55;49.40;99989.56;1683991;84;21058;-75
2022/07/25 11:09:18;;;;;;;0.98;0.85;;;;;;;24.54;48.93;99986.56;1644625;86;21034;-76
2022/07/25 11:11:49;;;;;;;0.57;0.57;;;;;;;24.45;49.97;99976.84;1666200;85;21041;-75
2022/07/25 11:14:32;;;;;;;1.57;1.42;;;;;;;24.47;49.65;99973.84;1675281;84;21148;-76
2022/07/25 11:17:15;;;;;;;2.42;0.70;;;;;;;24.49;50.02;99984.69;1666476;85;21089;-76
2022/07/25 11:19:57;;;;;;;1.12;0.55;;;;;;;24.42;49.55;99982.05;1666553;84;21494;-77
2022/07/25 11:22:25;;;;;;;1.15;1.00;;;;;;;24.32;50.24;99978.90;1670549;84;21254;-77
2022/07/25 11:24:51;;;;;;;1.20;0.62;;;;;;;24.24;50.70;99984.43;1681837;84;21098;-76
2022/07/25 11:27:24;;;;;;;4.53;0.70;;;;;;;24.19;50.82;99986.39;1681337;85;21550;-79
2022/07/25 11:29:51;;;;;;;1.45;0.70;;;;;;;24.10;51.06;99987.55;1637796;85;21630;-78
2022/07/25 11:32:18;;;;;;;2.65;0.82;;;;;;;23.98;51.65;99981.66;1636674;86;21083;-77
2022/07/25 11:34:52;;;;;;;3.22;0.80;;;;;;;23.89;51.83;99980.94;1654010;86;21113;-78
2022/07/25 11:37:20;;;;;;;1.35;1.25;;;;;;;23.87;52.00;99973.61;1688334;84;21140;-76
2022/07/25 11:39:47;;;;;;;2.22;0.72;;;;;;;23.91;52.04;99977.93;1682943;84;20990;-78
2022/07/25 11:42:17;;;;;;;0.65;0.65;;;;;;;23.98;51.39;99976.22;1695902;84;21133;-75